Weather at Modlin Airport

Public forecast

Using degrees Celsius for public forecast. Weather courtesy of forecast.io.

Current aviation weather report (METAR) for Modlin Airport

Retrieved 2022/07/01 00:30 UTC (29 minutes ago):

EPMO 010030Z 05002KT CAVOK 21/15 Q1014

Aviation forecast (TAF) for Modlin Airport

Retrieved 2022-07-01 00:00 UTC (59 minutes ago):

TAF EPMO 302330Z 0100/0124 VRB03KT CAVOK BECMG 0103/0106 13010KT TEMPO 0118/0124 VRB15G30KT 3000 TSRA SCT007 BKN030CB